sensor_id;sensor_type;location;lat;lon;timestamp;P1;durP1;ratioP1;P2;durP2;ratioP2
8952;SDS011;4511;50.890;8.054;2022-10-03T00:01:35;22.07;;;9.97;;
8952;SDS011;4511;50.890;8.054;2022-10-03T00:04:18;23.50;;;10.03;;
8952;SDS011;4511;50.890;8.054;2022-10-03T00:06:58;50.57;;;11.87;;
8952;SDS011;4511;50.890;8.054;2022-10-03T00:09:41;54.43;;;11.20;;
8952;SDS011;4511;50.890;8.054;2022-10-03T00:12:30;72.13;;;12.73;;
8952;SDS011;4511;50.890;8.054;2022-10-03T00:15:08;46.17;;;10.70;;
8952;SDS011;4511;50.890;8.054;2022-10-03T00:17:42;80.40;;;12.93;;
8952;SDS011;4511;50.890;8.054;2022-10-03T00:20:27;41.27;;;10.07;;
8952;SDS011;4511;50.890;8.054;2022-10-03T00:23:07;46.07;;;11.43;;
8952;SDS011;4511;50.890;8.054;2022-10-03T00:25:42;41.80;;;10.90;;
8952;SDS011;4511;50.890;8.054;2022-10-03T00:28:17;47.93;;;11.43;;
8952;SDS011;4511;50.890;8.054;2022-10-03T00:30:55;39.97;;;11.07;;
8952;SDS011;4511;50.890;8.054;2022-10-03T00:33:32;23.87;;;9.70;;
8952;SDS011;4511;50.890;8.054;2022-10-03T00:36:10;44.43;;;10.57;;
8952;SDS011;4511;50.890;8.054;2022-10-03T00:38:58;82.70;;;12.10;;
8952;SDS011;4511;50.890;8.054;2022-10-03T00:42:01;62.80;;;9.90;;
8952;SDS011;4511;50.890;8.054;2022-10-03T00:45:01;43.50;;;9.93;;
8952;SDS011;4511;50.890;8.054;2022-10-03T00:48:13;58.60;;;9.93;;
8952;SDS011;4511;50.890;8.054;2022-10-03T00:51:07;58.57;;;10.27;;
8952;SDS011;4511;50.890;8.054;2022-10-03T00:53:53;58.77;;;10.23;;
8952;SDS011;4511;50.890;8.054;2022-10-03T00:56:39;18.23;;;7.83;;
8952;SDS011;4511;50.890;8.054;2022-10-03T00:59:26;16.27;;;8.27;;
8952;SDS011;4511;50.890;8.054;2022-10-03T01:02:16;45.63;;;10.23;;
8952;SDS011;4511;50.890;8.054;2022-10-03T01:04:59;60.53;;;10.03;;
8952;SDS011;4511;50.890;8.054;2022-10-03T01:07:54;105.10;;;11.27;;
8952;SDS011;4511;50.890;8.054;2022-10-03T01:10:31;122.33;;;11.00;;
8952;SDS011;4511;50.890;8.054;2022-10-03T01:13:13;199.53;;;13.43;;
8952;SDS011;4511;50.890;8.054;2022-10-03T01:15:49;153.80;;;12.63;;
8952;SDS011;4511;50.890;8.054;2022-10-03T01:18:25;193.90;;;12.37;;
8952;SDS011;4511;50.890;8.054;2022-10-03T01:21:05;102.73;;;10.00;;
8952;SDS011;4511;50.890;8.054;2022-10-03T01:26:53;99.53;;;10.13;;
8952;SDS011;4511;50.890;8.054;2022-10-03T01:29:26;110.93;;;10.20;;
8952;SDS011;4511;50.890;8.054;2022-10-03T01:32:23;47.03;;;8.87;;
8952;SDS011;4511;50.890;8.054;2022-10-03T01:34:55;22.13;;;7.20;;
8952;SDS011;4511;50.890;8.054;2022-10-03T01:37:36;10.13;;;7.03;;
8952;SDS011;4511;50.890;8.054;2022-10-03T01:40:12;9.60;;;7.23;;
8952;SDS011;4511;50.890;8.054;2022-10-03T01:42:52;13.73;;;7.63;;
8952;SDS011;4511;50.890;8.054;2022-10-03T01:45:34;8.03;;;7.20;;
8952;SDS011;4511;50.890;8.054;2022-10-03T01:48:11;7.90;;;6.90;;
8952;SDS011;4511;50.890;8.054;2022-10-03T01:50:47;8.97;;;7.67;;
8952;SDS011;4511;50.890;8.054;2022-10-03T01:53:24;7.70;;;6.60;;
8952;SDS011;4511;50.890;8.054;2022-10-03T01:56:02;9.57;;;6.70;;
8952;SDS011;4511;50.890;8.054;2022-10-03T01:58:39;10.20;;;6.87;;
8952;SDS011;4511;50.890;8.054;2022-10-03T02:01:18;11.57;;;7.50;;
8952;SDS011;4511;50.890;8.054;2022-10-03T02:03:52;8.13;;;6.60;;
8952;SDS011;4511;50.890;8.054;2022-10-03T02:06:27;8.90;;;6.83;;
8952;SDS011;4511;50.890;8.054;2022-10-03T02:09:06;10.80;;;7.03;;
8952;SDS011;4511;50.890;8.054;2022-10-03T02:11:38;10.03;;;7.77;;
8952;SDS011;4511;50.890;8.054;2022-10-03T02:14:23;8.33;;;6.40;;
8952;SDS011;4511;50.890;8.054;2022-10-03T02:17:00;13.37;;;7.93;;
8952;SDS011;4511;50.890;8.054;2022-10-03T02:19:34;11.70;;;6.83;;
8952;SDS011;4511;50.890;8.054;2022-10-03T02:22:12;17.07;;;8.60;;
8952;SDS011;4511;50.890;8.054;2022-10-03T02:24:42;16.73;;;8.93;;
8952;SDS011;4511;50.890;8.054;2022-10-03T02:27:23;12.83;;;7.70;;
8952;SDS011;4511;50.890;8.054;2022-10-03T02:30:16;12.73;;;7.83;;
8952;SDS011;4511;50.890;8.054;2022-10-03T02:33:03;14.83;;;7.63;;
8952;SDS011;4511;50.890;8.054;2022-10-03T02:36:09;10.67;;;7.17;;
8952;SDS011;4511;50.890;8.054;2022-10-03T02:39:29;17.87;;;9.07;;
8952;SDS011;4511;50.890;8.054;2022-10-03T02:42:25;17.73;;;10.00;;
8952;SDS011;4511;50.890;8.054;2022-10-03T02:48:31;13.70;;;6.90;;
8952;SDS011;4511;50.890;8.054;2022-10-03T02:51:29;10.77;;;7.80;;
8952;SDS011;4511;50.890;8.054;2022-10-03T02:54:24;12.40;;;7.57;;
8952;SDS011;4511;50.890;8.054;2022-10-03T03:00:19;38.17;;;10.67;;
8952;SDS011;4511;50.890;8.054;2022-10-03T03:09:08;30.10;;;10.97;;
8952;SDS011;4511;50.890;8.054;2022-10-03T03:12:05;24.87;;;10.80;;
8952;SDS011;4511;50.890;8.054;2022-10-03T03:15:10;19.80;;;10.23;;
8952;SDS011;4511;50.890;8.054;2022-10-03T03:18:07;54.07;;;13.20;;
8952;SDS011;4511;50.890;8.054;2022-10-03T03:20:49;18.50;;;9.87;;
8952;SDS011;4511;50.890;8.054;2022-10-03T03:23:43;16.40;;;10.37;;
8952;SDS011;4511;50.890;8.054;2022-10-03T03:26:32;18.00;;;11.43;;
8952;SDS011;4511;50.890;8.054;2022-10-03T03:29:17;15.50;;;10.57;;
8952;SDS011;4511;50.890;8.054;2022-10-03T03:31:52;16.07;;;10.50;;
8952;SDS011;4511;50.890;8.054;2022-10-03T03:34:28;22.43;;;11.67;;
8952;SDS011;4511;50.890;8.054;2022-10-03T03:37:00;17.80;;;11.57;;
8952;SDS011;4511;50.890;8.054;2022-10-03T03:39:38;27.70;;;12.60;;
8952;SDS011;4511;50.890;8.054;2022-10-03T03:42:30;21.47;;;11.93;;
8952;SDS011;4511;50.890;8.054;2022-10-03T03:45:06;22.63;;;12.07;;
8952;SDS011;4511;50.890;8.054;2022-10-03T03:47:46;21.93;;;11.37;;
8952;SDS011;4511;50.890;8.054;2022-10-03T03:50:31;15.87;;;10.83;;
8952;SDS011;4511;50.890;8.054;2022-10-03T03:53:16;18.07;;;11.57;;
8952;SDS011;4511;50.890;8.054;2022-10-03T03:56:01;21.40;;;12.83;;
8952;SDS011;4511;50.890;8.054;2022-10-03T03:58:41;18.43;;;12.43;;
8952;SDS011;4511;50.890;8.054;2022-10-03T04:04:11;20.87;;;12.20;;
8952;SDS011;4511;50.890;8.054;2022-10-03T04:06:51;28.03;;;13.33;;
8952;SDS011;4511;50.890;8.054;2022-10-03T04:09:40;14.63;;;11.40;;
8952;SDS011;4511;50.890;8.054;2022-10-03T04:12:16;22.67;;;11.90;;
8952;SDS011;4511;50.890;8.054;2022-10-03T04:15:02;25.87;;;13.47;;
8952;SDS011;4511;50.890;8.054;2022-10-03T04:17:46;19.80;;;11.70;;
8952;SDS011;4511;50.890;8.054;2022-10-03T04:20:48;18.83;;;12.17;;
8952;SDS011;4511;50.890;8.054;2022-10-03T04:23:30;27.83;;;13.37;;
8952;SDS011;4511;50.890;8.054;2022-10-03T04:26:13;23.37;;;13.03;;
8952;SDS011;4511;50.890;8.054;2022-10-03T04:29:04;21.37;;;12.50;;
8952;SDS011;4511;50.890;8.054;2022-10-03T04:31:56;25.83;;;13.43;;
8952;SDS011;4511;50.890;8.054;2022-10-03T04:34:39;44.33;;;16.53;;
8952;SDS011;4511;50.890;8.054;2022-10-03T04:37:23;23.07;;;14.00;;
8952;SDS011;4511;50.890;8.054;2022-10-03T04:40:01;28.30;;;14.03;;
8952;SDS011;4511;50.890;8.054;2022-10-03T04:42:45;33.20;;;15.57;;
8952;SDS011;4511;50.890;8.054;2022-10-03T04:45:24;43.23;;;17.07;;
8952;SDS011;4511;50.890;8.054;2022-10-03T04:47:58;34.00;;;16.27;;
8952;SDS011;4511;50.890;8.054;2022-10-03T04:50:41;33.37;;;16.67;;
8952;SDS011;4511;50.890;8.054;2022-10-03T04:53:18;48.53;;;17.53;;
8952;SDS011;4511;50.890;8.054;2022-10-03T04:55:53;40.87;;;17.20;;
8952;SDS011;4511;50.890;8.054;2022-10-03T04:58:32;38.33;;;17.63;;
8952;SDS011;4511;50.890;8.054;2022-10-03T05:01:05;33.67;;;16.10;;
8952;SDS011;4511;50.890;8.054;2022-10-03T05:03:44;43.40;;;18.73;;
8952;SDS011;4511;50.890;8.054;2022-10-03T05:06:22;45.60;;;18.87;;
8952;SDS011;4511;50.890;8.054;2022-10-03T05:08:56;40.53;;;17.60;;
8952;SDS011;4511;50.890;8.054;2022-10-03T05:11:35;39.30;;;17.87;;
8952;SDS011;4511;50.890;8.054;2022-10-03T05:14:11;38.00;;;18.40;;
8952;SDS011;4511;50.890;8.054;2022-10-03T05:16:50;39.83;;;17.73;;
8952;SDS011;4511;50.890;8.054;2022-10-03T05:19:36;31.37;;;17.33;;
8952;SDS011;4511;50.890;8.054;2022-10-03T05:22:28;39.97;;;17.83;;
8952;SDS011;4511;50.890;8.054;2022-10-03T05:25:10;37.23;;;18.03;;
8952;SDS011;4511;50.890;8.054;2022-10-03T05:27:46;33.87;;;17.07;;
8952;SDS011;4511;50.890;8.054;2022-10-03T05:30:23;30.30;;;17.03;;
8952;SDS011;4511;50.890;8.054;2022-10-03T05:33:00;50.67;;;20.50;;
8952;SDS011;4511;50.890;8.054;2022-10-03T05:35:40;37.20;;;18.33;;
8952;SDS011;4511;50.890;8.054;2022-10-03T05:41:10;31.73;;;18.43;;
8952;SDS011;4511;50.890;8.054;2022-10-03T05:43:45;43.03;;;19.50;;
8952;SDS011;4511;50.890;8.054;2022-10-03T05:46:28;37.53;;;18.20;;
8952;SDS011;4511;50.890;8.054;2022-10-03T05:49:15;32.07;;;18.23;;
8952;SDS011;4511;50.890;8.054;2022-10-03T05:52:06;46.50;;;20.47;;
8952;SDS011;4511;50.890;8.054;2022-10-03T05:54:52;32.17;;;18.17;;
8952;SDS011;4511;50.890;8.054;2022-10-03T05:57:46;33.27;;;17.77;;
8952;SDS011;4511;50.890;8.054;2022-10-03T06:00:27;33.33;;;17.90;;
8952;SDS011;4511;50.890;8.054;2022-10-03T06:03:10;30.13;;;17.80;;
8952;SDS011;4511;50.890;8.054;2022-10-03T06:06:10;35.60;;;17.53;;
8952;SDS011;4511;50.890;8.054;2022-10-03T06:08:57;28.20;;;16.90;;
8952;SDS011;4511;50.890;8.054;2022-10-03T06:11:55;28.40;;;16.87;;
8952;SDS011;4511;50.890;8.054;2022-10-03T06:14:48;37.43;;;18.43;;
8952;SDS011;4511;50.890;8.054;2022-10-03T06:17:42;53.03;;;19.43;;
8952;SDS011;4511;50.890;8.054;2022-10-03T06:20:27;30.40;;;17.90;;
8952;SDS011;4511;50.890;8.054;2022-10-03T06:23:44;34.13;;;18.80;;
8952;SDS011;4511;50.890;8.054;2022-10-03T06:26:41;34.00;;;18.27;;
8952;SDS011;4511;50.890;8.054;2022-10-03T06:32:33;32.60;;;17.83;;
8952;SDS011;4511;50.890;8.054;2022-10-03T06:42:09;31.17;;;18.73;;
8952;SDS011;4511;50.890;8.054;2022-10-03T06:45:19;44.17;;;20.73;;
8952;SDS011;4511;50.890;8.054;2022-10-03T06:48:03;32.90;;;18.87;;
8952;SDS011;4511;50.890;8.054;2022-10-03T06:50:48;51.03;;;21.33;;
8952;SDS011;4511;50.890;8.054;2022-10-03T06:56:35;43.80;;;21.20;;
8952;SDS011;4511;50.890;8.054;2022-10-03T06:59:21;40.10;;;20.57;;
8952;SDS011;4511;50.890;8.054;2022-10-03T07:05:25;36.80;;;19.87;;
8952;SDS011;4511;50.890;8.054;2022-10-03T07:08:25;35.20;;;19.90;;
8952;SDS011;4511;50.890;8.054;2022-10-03T07:11:06;41.00;;;19.47;;
8952;SDS011;4511;50.890;8.054;2022-10-03T07:13:53;35.33;;;16.83;;
8952;SDS011;4511;50.890;8.054;2022-10-03T07:16:52;38.43;;;18.73;;
8952;SDS011;4511;50.890;8.054;2022-10-03T07:19:52;34.33;;;18.13;;
8952;SDS011;4511;50.890;8.054;2022-10-03T07:22:32;36.70;;;18.33;;
8952;SDS011;4511;50.890;8.054;2022-10-03T07:25:41;28.37;;;16.47;;
8952;SDS011;4511;50.890;8.054;2022-10-03T07:28:25;29.17;;;16.37;;
8952;SDS011;4511;50.890;8.054;2022-10-03T07:31:23;29.73;;;16.13;;
8952;SDS011;4511;50.890;8.054;2022-10-03T07:34:15;24.97;;;15.53;;
8952;SDS011;4511;50.890;8.054;2022-10-03T07:37:12;36.33;;;18.53;;
8952;SDS011;4511;50.890;8.054;2022-10-03T07:40:11;28.90;;;16.90;;
8952;SDS011;4511;50.890;8.054;2022-10-03T07:46:04;26.97;;;15.80;;
8952;SDS011;4511;50.890;8.054;2022-10-03T07:48:52;28.47;;;16.47;;
8952;SDS011;4511;50.890;8.054;2022-10-03T07:51:35;30.70;;;16.87;;
8952;SDS011;4511;50.890;8.054;2022-10-03T08:00:08;26.10;;;15.40;;
8952;SDS011;4511;50.890;8.054;2022-10-03T08:03:03;23.27;;;14.57;;
8952;SDS011;4511;50.890;8.054;2022-10-03T08:06:05;23.50;;;13.97;;
8952;SDS011;4511;50.890;8.054;2022-10-03T08:08:56;23.47;;;14.13;;
8952;SDS011;4511;50.890;8.054;2022-10-03T08:11:48;22.77;;;14.00;;
8952;SDS011;4511;50.890;8.054;2022-10-03T08:14:30;25.47;;;15.10;;
8952;SDS011;4511;50.890;8.054;2022-10-03T08:26:00;27.73;;;14.93;;
8952;SDS011;4511;50.890;8.054;2022-10-03T08:28:41;16.33;;;10.93;;
8952;SDS011;4511;50.890;8.054;2022-10-03T08:34:28;30.47;;;20.20;;
8952;SDS011;4511;50.890;8.054;2022-10-03T08:37:19;24.47;;;13.27;;
8952;SDS011;4511;50.890;8.054;2022-10-03T08:43:39;20.57;;;12.83;;
8952;SDS011;4511;50.890;8.054;2022-10-03T08:46:57;22.93;;;13.53;;
8952;SDS011;4511;50.890;8.054;2022-10-03T08:49:44;21.97;;;12.60;;
8952;SDS011;4511;50.890;8.054;2022-10-03T08:52:26;22.37;;;13.00;;
8952;SDS011;4511;50.890;8.054;2022-10-03T09:01:00;21.40;;;13.00;;
8952;SDS011;4511;50.890;8.054;2022-10-03T09:03:53;17.80;;;11.57;;
8952;SDS011;4511;50.890;8.054;2022-10-03T09:06:47;16.53;;;10.50;;
8952;SDS011;4511;50.890;8.054;2022-10-03T09:09:34;16.87;;;10.33;;
8952;SDS011;4511;50.890;8.054;2022-10-03T09:12:39;18.90;;;11.03;;
8952;SDS011;4511;50.890;8.054;2022-10-03T09:15:41;14.80;;;10.43;;
8952;SDS011;4511;50.890;8.054;2022-10-03T09:18:42;14.37;;;10.20;;
8952;SDS011;4511;50.890;8.054;2022-10-03T09:21:39;15.00;;;9.47;;
8952;SDS011;4511;50.890;8.054;2022-10-03T09:24:27;19.90;;;9.47;;
8952;SDS011;4511;50.890;8.054;2022-10-03T09:27:32;18.30;;;9.90;;
8952;SDS011;4511;50.890;8.054;2022-10-03T09:30:19;18.37;;;10.03;;
8952;SDS011;4511;50.890;8.054;2022-10-03T09:38:52;12.33;;;7.10;;
8952;SDS011;4511;50.890;8.054;2022-10-03T09:41:38;9.17;;;5.57;;
8952;SDS011;4511;50.890;8.054;2022-10-03T09:44:37;9.20;;;5.13;;
8952;SDS011;4511;50.890;8.054;2022-10-03T09:47:24;10.03;;;4.93;;
8952;SDS011;4511;50.890;8.054;2022-10-03T09:50:40;8.40;;;5.20;;
8952;SDS011;4511;50.890;8.054;2022-10-03T09:53:43;8.50;;;4.10;;
8952;SDS011;4511;50.890;8.054;2022-10-03T09:56:41;10.03;;;4.50;;
8952;SDS011;4511;50.890;8.054;2022-10-03T09:59:35;10.03;;;4.43;;
8952;SDS011;4511;50.890;8.054;2022-10-03T10:02:23;9.80;;;4.07;;
8952;SDS011;4511;50.890;8.054;2022-10-03T10:05:33;7.07;;;4.00;;
8952;SDS011;4511;50.890;8.054;2022-10-03T10:08:32;8.20;;;4.27;;
8952;SDS011;4511;50.890;8.054;2022-10-03T10:11:15;6.13;;;3.97;;
8952;SDS011;4511;50.890;8.054;2022-10-03T10:20:17;7.50;;;3.30;;
8952;SDS011;4511;50.890;8.054;2022-10-03T10:23:16;6.77;;;3.17;;
8952;SDS011;4511;50.890;8.054;2022-10-03T10:29:04;6.77;;;3.50;;
8952;SDS011;4511;50.890;8.054;2022-10-03T10:34:54;7.00;;;2.73;;
8952;SDS011;4511;50.890;8.054;2022-10-03T10:37:46;4.33;;;2.40;;
8952;SDS011;4511;50.890;8.054;2022-10-03T10:43:55;3.93;;;2.50;;
8952;SDS011;4511;50.890;8.054;2022-10-03T11:09:05;5.20;;;3.13;;
8952;SDS011;4511;50.890;8.054;2022-10-03T11:12:01;5.70;;;2.40;;
8952;SDS011;4511;50.890;8.054;2022-10-03T11:24:10;4.17;;;2.37;;
8952;SDS011;4511;50.890;8.054;2022-10-03T11:27:11;3.13;;;2.17;;
8952;SDS011;4511;50.890;8.054;2022-10-03T11:39:21;5.63;;;2.30;;
8952;SDS011;4511;50.890;8.054;2022-10-03T11:41:59;5.07;;;2.30;;
8952;SDS011;4511;50.890;8.054;2022-10-03T11:44:31;8.07;;;2.53;;
8952;SDS011;4511;50.890;8.054;2022-10-03T11:47:19;5.17;;;2.57;;
8952;SDS011;4511;50.890;8.054;2022-10-03T11:53:00;5.73;;;2.23;;
8952;SDS011;4511;50.890;8.054;2022-10-03T11:55:44;3.80;;;2.30;;
8952;SDS011;4511;50.890;8.054;2022-10-03T11:58:23;5.47;;;2.30;;
8952;SDS011;4511;50.890;8.054;2022-10-03T12:00:58;6.43;;;2.40;;
8952;SDS011;4511;50.890;8.054;2022-10-03T12:03:43;4.60;;;2.80;;
8952;SDS011;4511;50.890;8.054;2022-10-03T12:06:19;5.30;;;2.47;;
8952;SDS011;4511;50.890;8.054;2022-10-03T12:09:26;6.27;;;2.60;;
8952;SDS011;4511;50.890;8.054;2022-10-03T12:12:05;5.43;;;2.80;;
8952;SDS011;4511;50.890;8.054;2022-10-03T12:14:39;4.33;;;2.60;;
8952;SDS011;4511;50.890;8.054;2022-10-03T12:17:11;5.87;;;2.50;;
8952;SDS011;4511;50.890;8.054;2022-10-03T12:19:42;5.17;;;3.10;;
8952;SDS011;4511;50.890;8.054;2022-10-03T12:22:27;4.90;;;2.83;;
8952;SDS011;4511;50.890;8.054;2022-10-03T12:25:05;4.43;;;2.57;;
8952;SDS011;4511;50.890;8.054;2022-10-03T12:27:45;9.00;;;3.23;;
8952;SDS011;4511;50.890;8.054;2022-10-03T12:30:17;4.73;;;2.90;;
8952;SDS011;4511;50.890;8.054;2022-10-03T12:32:48;5.67;;;3.07;;
8952;SDS011;4511;50.890;8.054;2022-10-03T12:35:30;6.27;;;3.17;;
8952;SDS011;4511;50.890;8.054;2022-10-03T12:38:13;3.83;;;2.60;;
8952;SDS011;4511;50.890;8.054;2022-10-03T12:40:50;6.27;;;2.93;;
8952;SDS011;4511;50.890;8.054;2022-10-03T12:43:31;4.77;;;2.70;;
8952;SDS011;4511;50.890;8.054;2022-10-03T12:46:08;150.97;;;118.57;;
8952;SDS011;4511;50.890;8.054;2022-10-03T12:48:41;8.23;;;3.20;;
8952;SDS011;4511;50.890;8.054;2022-10-03T12:51:18;6.20;;;2.73;;
8952;SDS011;4511;50.890;8.054;2022-10-03T12:53:54;4.77;;;2.70;;
8952;SDS011;4511;50.890;8.054;2022-10-03T12:56:29;5.47;;;3.10;;
8952;SDS011;4511;50.890;8.054;2022-10-03T13:02:00;4.00;;;3.20;;
8952;SDS011;4511;50.890;8.054;2022-10-03T13:04:50;6.60;;;3.27;;
8952;SDS011;4511;50.890;8.054;2022-10-03T13:07:30;6.40;;;3.50;;
8952;SDS011;4511;50.890;8.054;2022-10-03T13:10:11;6.10;;;3.37;;
8952;SDS011;4511;50.890;8.054;2022-10-03T13:12:45;6.70;;;3.33;;
8952;SDS011;4511;50.890;8.054;2022-10-03T13:18:12;5.83;;;3.50;;
8952;SDS011;4511;50.890;8.054;2022-10-03T13:21:08;4.83;;;3.33;;
8952;SDS011;4511;50.890;8.054;2022-10-03T13:23:41;4.03;;;3.10;;
8952;SDS011;4511;50.890;8.054;2022-10-03T13:26:14;5.33;;;3.30;;
8952;SDS011;4511;50.890;8.054;2022-10-03T13:28:49;6.23;;;3.43;;
8952;SDS011;4511;50.890;8.054;2022-10-03T13:31:27;4.63;;;3.00;;
8952;SDS011;4511;50.890;8.054;2022-10-03T13:33:58;6.10;;;3.37;;
8952;SDS011;4511;50.890;8.054;2022-10-03T13:36:28;7.40;;;3.27;;
8952;SDS011;4511;50.890;8.054;2022-10-03T13:39:05;7.00;;;3.50;;
8952;SDS011;4511;50.890;8.054;2022-10-03T13:41:43;5.23;;;3.40;;
8952;SDS011;4511;50.890;8.054;2022-10-03T13:44:26;6.57;;;3.73;;
8952;SDS011;4511;50.890;8.054;2022-10-03T13:47:04;9.70;;;3.30;;
8952;SDS011;4511;50.890;8.054;2022-10-03T13:49:51;7.20;;;3.50;;
8952;SDS011;4511;50.890;8.054;2022-10-03T13:52:22;4.60;;;3.23;;
8952;SDS011;4511;50.890;8.054;2022-10-03T13:54:59;7.53;;;3.60;;
8952;SDS011;4511;50.890;8.054;2022-10-03T13:57:44;7.17;;;3.40;;
8952;SDS011;4511;50.890;8.054;2022-10-03T14:00:19;6.53;;;3.07;;
8952;SDS011;4511;50.890;8.054;2022-10-03T14:02:58;10.37;;;3.57;;
8952;SDS011;4511;50.890;8.054;2022-10-03T14:05:44;4.37;;;3.13;;
8952;SDS011;4511;50.890;8.054;2022-10-03T14:08:45;7.13;;;3.60;;
8952;SDS011;4511;50.890;8.054;2022-10-03T14:11:31;6.03;;;3.50;;
8952;SDS011;4511;50.890;8.054;2022-10-03T14:14:09;6.50;;;3.50;;
8952;SDS011;4511;50.890;8.054;2022-10-03T14:16:53;6.77;;;3.40;;
8952;SDS011;4511;50.890;8.054;2022-10-03T14:19:30;6.50;;;3.17;;
8952;SDS011;4511;50.890;8.054;2022-10-03T14:22:07;5.70;;;3.50;;
8952;SDS011;4511;50.890;8.054;2022-10-03T14:24:49;11.27;;;3.60;;
8952;SDS011;4511;50.890;8.054;2022-10-03T14:27:36;6.80;;;3.60;;
8952;SDS011;4511;50.890;8.054;2022-10-03T14:30:10;7.87;;;3.40;;
8952;SDS011;4511;50.890;8.054;2022-10-03T14:32:41;5.30;;;3.80;;
8952;SDS011;4511;50.890;8.054;2022-10-03T14:35:21;8.33;;;4.10;;
8952;SDS011;4511;50.890;8.054;2022-10-03T14:37:59;5.53;;;3.80;;
8952;SDS011;4511;50.890;8.054;2022-10-03T14:40:34;8.27;;;3.80;;
8952;SDS011;4511;50.890;8.054;2022-10-03T14:43:14;5.60;;;3.90;;
8952;SDS011;4511;50.890;8.054;2022-10-03T14:45:52;10.53;;;3.50;;
8952;SDS011;4511;50.890;8.054;2022-10-03T14:48:23;7.63;;;3.80;;
8952;SDS011;4511;50.890;8.054;2022-10-03T14:50:57;5.40;;;3.70;;
8952;SDS011;4511;50.890;8.054;2022-10-03T14:53:33;8.73;;;4.20;;
8952;SDS011;4511;50.890;8.054;2022-10-03T14:56:04;7.93;;;4.00;;
8952;SDS011;4511;50.890;8.054;2022-10-03T14:58:34;8.13;;;3.90;;
8952;SDS011;4511;50.890;8.054;2022-10-03T15:01:10;9.17;;;3.93;;
8952;SDS011;4511;50.890;8.054;2022-10-03T15:03:41;10.00;;;4.40;;
8952;SDS011;4511;50.890;8.054;2022-10-03T15:06:19;12.03;;;4.60;;
8952;SDS011;4511;50.890;8.054;2022-10-03T15:08:58;6.80;;;4.23;;
8952;SDS011;4511;50.890;8.054;2022-10-03T15:11:29;7.20;;;4.33;;
8952;SDS011;4511;50.890;8.054;2022-10-03T15:14:00;7.43;;;4.13;;
8952;SDS011;4511;50.890;8.054;2022-10-03T15:16:28;8.37;;;3.97;;
8952;SDS011;4511;50.890;8.054;2022-10-03T15:19:00;7.53;;;4.30;;
8952;SDS011;4511;50.890;8.054;2022-10-03T15:21:31;7.17;;;3.67;;
8952;SDS011;4511;50.890;8.054;2022-10-03T15:23:59;8.67;;;4.37;;
8952;SDS011;4511;50.890;8.054;2022-10-03T15:26:31;8.67;;;3.57;;
8952;SDS011;4511;50.890;8.054;2022-10-03T15:29:00;4.10;;;3.07;;
8952;SDS011;4511;50.890;8.054;2022-10-03T15:31:32;7.43;;;3.90;;
8952;SDS011;4511;50.890;8.054;2022-10-03T15:34:00;6.90;;;3.60;;
8952;SDS011;4511;50.890;8.054;2022-10-03T15:36:32;7.97;;;3.50;;
8952;SDS011;4511;50.890;8.054;2022-10-03T15:39:02;7.00;;;3.30;;
8952;SDS011;4511;50.890;8.054;2022-10-03T15:41:32;6.43;;;3.33;;
8952;SDS011;4511;50.890;8.054;2022-10-03T15:44:02;8.40;;;4.00;;
8952;SDS011;4511;50.890;8.054;2022-10-03T15:46:38;5.63;;;3.50;;
8952;SDS011;4511;50.890;8.054;2022-10-03T15:51:57;8.73;;;3.87;;
8952;SDS011;4511;50.890;8.054;2022-10-03T15:54:31;6.97;;;4.00;;
8952;SDS011;4511;50.890;8.054;2022-10-03T15:57:02;7.20;;;3.60;;
8952;SDS011;4511;50.890;8.054;2022-10-03T15:59:32;6.87;;;3.50;;
8952;SDS011;4511;50.890;8.054;2022-10-03T16:02:02;6.37;;;3.40;;
8952;SDS011;4511;50.890;8.054;2022-10-03T16:04:34;6.37;;;3.67;;
8952;SDS011;4511;50.890;8.054;2022-10-03T16:07:06;7.40;;;3.80;;
8952;SDS011;4511;50.890;8.054;2022-10-03T16:09:39;6.70;;;3.40;;
8952;SDS011;4511;50.890;8.054;2022-10-03T16:12:28;7.23;;;3.37;;
8952;SDS011;4511;50.890;8.054;2022-10-03T16:15:13;11.57;;;3.57;;
8952;SDS011;4511;50.890;8.054;2022-10-03T16:17:45;6.83;;;3.53;;
8952;SDS011;4511;50.890;8.054;2022-10-03T16:20:17;8.90;;;3.60;;
8952;SDS011;4511;50.890;8.054;2022-10-03T16:22:48;5.97;;;3.47;;
8952;SDS011;4511;50.890;8.054;2022-10-03T16:25:17;6.30;;;3.20;;
8952;SDS011;4511;50.890;8.054;2022-10-03T16:27:50;7.47;;;3.57;;
8952;SDS011;4511;50.890;8.054;2022-10-03T16:30:20;7.20;;;3.67;;
8952;SDS011;4511;50.890;8.054;2022-10-03T16:32:51;6.13;;;3.60;;
8952;SDS011;4511;50.890;8.054;2022-10-03T16:35:31;6.80;;;3.50;;
8952;SDS011;4511;50.890;8.054;2022-10-03T16:38:03;5.87;;;3.87;;
8952;SDS011;4511;50.890;8.054;2022-10-03T16:40:33;5.30;;;3.60;;
8952;SDS011;4511;50.890;8.054;2022-10-03T16:43:02;7.03;;;3.70;;
8952;SDS011;4511;50.890;8.054;2022-10-03T16:45:34;8.00;;;3.50;;
8952;SDS011;4511;50.890;8.054;2022-10-03T16:48:09;9.43;;;4.27;;
8952;SDS011;4511;50.890;8.054;2022-10-03T16:50:56;10.23;;;4.80;;
8952;SDS011;4511;50.890;8.054;2022-10-03T16:53:25;10.90;;;6.97;;
8952;SDS011;4511;50.890;8.054;2022-10-03T16:55:54;7.20;;;5.70;;
8952;SDS011;4511;50.890;8.054;2022-10-03T16:58:24;9.20;;;5.60;;
8952;SDS011;4511;50.890;8.054;2022-10-03T17:00:55;9.13;;;5.83;;
8952;SDS011;4511;50.890;8.054;2022-10-03T17:03:27;7.70;;;5.70;;
8952;SDS011;4511;50.890;8.054;2022-10-03T17:06:00;8.97;;;4.70;;
8952;SDS011;4511;50.890;8.054;2022-10-03T17:08:31;8.17;;;4.40;;
8952;SDS011;4511;50.890;8.054;2022-10-03T17:11:02;6.20;;;4.43;;
8952;SDS011;4511;50.890;8.054;2022-10-03T17:13:36;10.13;;;4.50;;
8952;SDS011;4511;50.890;8.054;2022-10-03T17:16:08;7.23;;;4.73;;
8952;SDS011;4511;50.890;8.054;2022-10-03T17:18:39;9.10;;;4.40;;
8952;SDS011;4511;50.890;8.054;2022-10-03T17:21:12;7.97;;;4.50;;
8952;SDS011;4511;50.890;8.054;2022-10-03T17:23:50;6.70;;;4.53;;
8952;SDS011;4511;50.890;8.054;2022-10-03T17:26:24;6.03;;;4.70;;
8952;SDS011;4511;50.890;8.054;2022-10-03T17:28:59;10.23;;;5.50;;
8952;SDS011;4511;50.890;8.054;2022-10-03T17:31:35;7.30;;;4.60;;
8952;SDS011;4511;50.890;8.054;2022-10-03T17:34:10;9.90;;;5.50;;
8952;SDS011;4511;50.890;8.054;2022-10-03T17:36:47;23.43;;;17.00;;
8952;SDS011;4511;50.890;8.054;2022-10-03T17:39:25;8.47;;;5.90;;
8952;SDS011;4511;50.890;8.054;2022-10-03T17:42:03;9.43;;;6.20;;
8952;SDS011;4511;50.890;8.054;2022-10-03T17:44:42;6.10;;;4.80;;
8952;SDS011;4511;50.890;8.054;2022-10-03T17:47:21;7.67;;;4.90;;
8952;SDS011;4511;50.890;8.054;2022-10-03T17:49:51;6.23;;;4.57;;
8952;SDS011;4511;50.890;8.054;2022-10-03T17:52:24;6.53;;;4.87;;
8952;SDS011;4511;50.890;8.054;2022-10-03T17:54:54;9.07;;;5.17;;
8952;SDS011;4511;50.890;8.054;2022-10-03T17:57:24;7.70;;;4.57;;
8952;SDS011;4511;50.890;8.054;2022-10-03T17:59:53;8.13;;;5.17;;
8952;SDS011;4511;50.890;8.054;2022-10-03T18:02:24;11.27;;;4.90;;
8952;SDS011;4511;50.890;8.054;2022-10-03T18:05:01;9.60;;;5.33;;
8952;SDS011;4511;50.890;8.054;2022-10-03T18:07:36;6.80;;;5.10;;
8952;SDS011;4511;50.890;8.054;2022-10-03T18:10:06;10.53;;;5.37;;
8952;SDS011;4511;50.890;8.054;2022-10-03T18:12:44;7.03;;;5.30;;
8952;SDS011;4511;50.890;8.054;2022-10-03T18:18:47;8.30;;;5.50;;
8952;SDS011;4511;50.890;8.054;2022-10-03T18:21:33;7.27;;;5.33;;
8952;SDS011;4511;50.890;8.054;2022-10-03T18:24:13;10.67;;;5.43;;
8952;SDS011;4511;50.890;8.054;2022-10-03T18:26:52;10.20;;;7.17;;
8952;SDS011;4511;50.890;8.054;2022-10-03T18:29:28;10.63;;;6.87;;
8952;SDS011;4511;50.890;8.054;2022-10-03T18:32:04;10.17;;;7.50;;
8952;SDS011;4511;50.890;8.054;2022-10-03T18:34:40;12.50;;;9.10;;
8952;SDS011;4511;50.890;8.054;2022-10-03T18:37:15;12.57;;;9.97;;
8952;SDS011;4511;50.890;8.054;2022-10-03T18:39:58;11.30;;;9.37;;
8952;SDS011;4511;50.890;8.054;2022-10-03T18:42:29;9.63;;;8.33;;
8952;SDS011;4511;50.890;8.054;2022-10-03T18:44:57;9.90;;;7.47;;
8952;SDS011;4511;50.890;8.054;2022-10-03T18:47:25;9.40;;;6.77;;
8952;SDS011;4511;50.890;8.054;2022-10-03T18:50:00;11.27;;;6.50;;
8952;SDS011;4511;50.890;8.054;2022-10-03T18:52:32;9.43;;;6.50;;
8952;SDS011;4511;50.890;8.054;2022-10-03T18:55:06;8.80;;;7.40;;
8952;SDS011;4511;50.890;8.054;2022-10-03T18:57:45;12.53;;;7.07;;